Time;durP1;ratioP1;P1;durP2;ratioP2;P2;SDS_P1;SDS_P2;PMS_P1;PMS_P2;Temp;Humidity;BMP_temperature;BMP_pressure;BME280_temperature;BME280_humidity;BME280_pressure;Samples;Min_cycle;Max_cycle;Signal;HPM_P1;HPM_P2
2020/12/24 00:00:05;;;;;;;2.03;1.40;;;;;;;;;;10379612;28;19912;-59
2020/12/24 00:05:09;;;;;;;4.20;1.60;;;;;;;;;;10373340;28;20036;-60
2020/12/24 00:10:07;;;;;;;2.10;1.87;;;;;;;;;;10370086;28;20024;-60
2020/12/24 00:15:05;;;;;;;3.17;1.73;;;;;;;;;;10372774;22;20049;-64
2020/12/24 00:20:04;;;;;;;2.28;2.00;;;;;;;;;;10367744;28;20124;-65
2020/12/24 00:25:01;;;;;;;2.47;1.13;;;;;;;;;;10386614;28;20051;-63
2020/12/24 00:29:59;;;;;;;1.10;0.80;;;;;;;;;;10370044;28;20034;-64
2020/12/24 00:34:56;;;;;;;4.17;1.43;;;;;;;;;;10379674;28;20021;-64
2020/12/24 00:39:54;;;;;;;6.53;1.77;;;;;;;;;;10385303;28;20128;-65
2020/12/24 00:44:51;;;;;;;1.63;1.10;;;;;;;;;;10388647;22;20631;-63
2020/12/24 00:49:48;;;;;;;1.40;1.23;;;;;;;;;;10374459;28;20033;-63
2020/12/24 00:54:46;;;;;;;5.47;1.60;;;;;;;;;;10370176;28;20025;-63
2020/12/24 00:59:44;;;;;;;7.47;1.80;;;;;;;;;;10379921;28;20044;-63
2020/12/24 01:04:41;;;;;;;2.70;1.53;;;;;;;;;;10384045;28;20395;-65
2020/12/24 01:09:38;;;;;;;10.27;2.07;;;;;;;;;;10379952;28;20037;-65
2020/12/24 01:14:36;;;;;;;2.17;1.13;;;;;;;;;;10387303;28;20028;-64
2020/12/24 01:19:33;;;;;;;5.23;1.90;;;;;;;;;;10387014;28;20402;-64
2020/12/24 01:24:30;;;;;;;3.23;1.60;;;;;;;;;;10373935;28;20086;-64
2020/12/24 01:29:28;;;;;;;1.73;1.30;;;;;;;;;;10374957;28;20123;-64
2020/12/24 01:34:25;;;;;;;2.00;1.70;;;;;;;;;;10370874;28;20080;-63
2020/12/24 01:39:22;;;;;;;3.57;1.73;;;;;;;;;;10371977;28;20029;-63
2020/12/24 01:44:20;;;;;;;2.03;1.30;;;;;;;;;;10374732;28;20051;-64
2020/12/24 01:49:19;;;;;;;2.60;1.92;;;;;;;;;;10373495;28;20051;-64
2020/12/24 01:54:17;;;;;;;2.10;1.50;;;;;;;;;;10364028;28;20055;-64
2020/12/24 01:59:16;;;;;;;5.85;1.88;;;;;;;;;;10375962;28;20078;-64
2020/12/24 02:04:14;;;;;;;4.03;1.88;;;;;;;;;;10374826;28;20055;-63
2020/12/24 02:09:11;;;;;;;4.77;1.97;;;;;;;;;;10370695;28;20047;-63
2020/12/24 02:14:09;;;;;;;3.17;1.53;;;;;;;;;;10361681;28;20352;-64
2020/12/24 02:19:06;;;;;;;3.43;1.30;;;;;;;;;;10373996;28;20127;-63
2020/12/24 02:24:04;;;;;;;2.73;2.00;;;;;;;;;;10374019;28;20032;-64
2020/12/24 02:29:01;;;;;;;4.47;1.47;;;;;;;;;;10369522;28;20033;-62
2020/12/24 02:33:58;;;;;;;4.30;1.80;;;;;;;;;;10370352;28;20440;-62
2020/12/24 02:38:56;;;;;;;2.53;1.83;;;;;;;;;;10376937;28;20036;-62
2020/12/24 02:43:53;;;;;;;2.83;2.07;;;;;;;;;;10372555;28;20383;-63
2020/12/24 02:48:51;;;;;;;2.53;1.73;;;;;;;;;;10366730;28;20182;-63
2020/12/24 02:53:48;;;;;;;3.07;1.60;;;;;;;;;;10364377;28;20097;-63
2020/12/24 02:58:45;;;;;;;1.60;1.37;;;;;;;;;;10368295;28;20037;-64
2020/12/24 03:03:43;;;;;;;1.90;1.07;;;;;;;;;;10381734;28;20403;-65
2020/12/24 03:08:40;;;;;;;1.43;0.70;;;;;;;;;;10372415;28;20040;-64
2020/12/24 03:13:39;;;;;;;1.93;1.30;;;;;;;;;;10374168;28;20167;-65
2020/12/24 03:18:36;;;;;;;1.85;1.10;;;;;;;;;;10373219;28;20402;-63
2020/12/24 03:23:34;;;;;;;1.33;0.70;;;;;;;;;;10359594;28;20028;-64
2020/12/24 03:28:31;;;;;;;1.43;0.77;;;;;;;;;;10371773;28;20032;-65
2020/12/24 03:33:28;;;;;;;1.20;0.87;;;;;;;;;;10365088;28;20032;-64
2020/12/24 03:38:26;;;;;;;3.97;0.70;;;;;;;;;;10375270;28;20044;-64
2020/12/24 03:43:23;;;;;;;1.50;0.60;;;;;;;;;;10358053;28;20102;-64
2020/12/24 03:48:20;;;;;;;3.80;0.50;;;;;;;;;;10356006;28;20036;-64
2020/12/24 03:53:18;;;;;;;0.60;0.60;;;;;;;;;;10357671;28;20029;-64
2020/12/24 03:58:16;;;;;;;0.60;0.60;;;;;;;;;;10368084;28;20084;-63
2020/12/24 04:03:13;;;;;;;1.50;0.40;;;;;;;;;;10374616;28;20029;-64
2020/12/24 04:08:11;;;;;;;0.37;0.30;;;;;;;;;;10375598;28;20124;-64
2020/12/24 04:13:08;;;;;;;0.60;0.40;;;;;;;;;;10353642;28;20699;-64
2020/12/24 04:18:05;;;;;;;0.27;0.27;;;;;;;;;;10374190;28;20037;-63
2020/12/24 04:23:03;;;;;;;0.20;0.20;;;;;;;;;;10375922;28;20568;-64
2020/12/24 04:28:00;;;;;;;5.00;0.83;;;;;;;;;;10372123;28;20494;-64
2020/12/24 04:32:57;;;;;;;1.27;0.53;;;;;;;;;;10368198;28;20033;-64
2020/12/24 04:37:55;;;;;;;0.60;0.60;;;;;;;;;;10359110;28;20040;-64
2020/12/24 04:42:53;;;;;;;0.77;0.57;;;;;;;;;;10363038;28;20059;-63
2020/12/24 04:47:54;;;;;;;0.85;0.68;;;;;;;;;;10365833;28;20053;-64
2020/12/24 04:52:52;;;;;;;0.25;0.25;;;;;;;;;;10372358;28;20028;-64
2020/12/24 04:57:49;;;;;;;0.40;0.37;;;;;;;;;;10376853;28;20029;-65
2020/12/24 05:03:05;;;;;;;1.67;0.83;;;;;;;;;;10372301;28;20059;-63
2020/12/24 05:08:03;;;;;;;0.32;0.32;;;;;;;;;;10376445;28;20672;-64
2020/12/24 05:13:01;;;;;;;;;;;;;;;;;;10371887;28;20506;-64
2020/12/24 05:18:23;;;;;;;1.55;0.77;;;;;;;;;;10361009;28;19918;-63
2020/12/24 05:23:21;;;;;;;0.65;0.65;;;;;;;;;;10363695;28;20066;-64
2020/12/24 05:28:21;;;;;;;1.47;1.33;;;;;;;;;;10372640;28;20056;-63
2020/12/24 05:33:27;;;;;;;2.35;1.30;;;;;;;;;;10354693;28;20499;-64
2020/12/24 05:38:32;;;;;;;7.65;2.05;;;;;;;;;;10370124;28;20032;-64
2020/12/24 05:43:29;;;;;;;6.10;1.35;;;;;;;;;;10359593;28;20040;-64
2020/12/24 05:48:31;;;;;;;2.10;1.40;;;;;;;;;;10370705;28;20655;-65
2020/12/24 05:53:29;;;;;;;3.70;1.42;;;;;;;;;;10370095;28;20038;-63
2020/12/24 05:58:27;;;;;;;4.43;2.00;;;;;;;;;;10356587;28;20032;-63
2020/12/24 06:03:35;;;;;;;2.47;1.15;;;;;;;;;;10348945;28;20032;-63
2020/12/24 06:08:33;;;;;;;10.15;2.33;;;;;;;;;;10350034;28;20047;-64
2020/12/24 06:13:31;;;;;;;;;;;;;;;;;;10364606;28;20102;-61
2020/12/24 06:18:30;;;;;;;2.50;1.17;;;;;;;;;;10351923;28;19974;-60
2020/12/24 06:23:31;;;;;;;3.85;1.45;;;;;;;;;;10341926;28;20443;-62
2020/12/24 06:28:32;;;;;;;6.07;2.08;;;;;;;;;;10315135;28;20120;-66
2020/12/24 06:33:30;;;;;;;3.70;2.28;;;;;;;;;;10313029;28;20029;-63
2020/12/24 06:38:46;;;;;;;4.03;2.13;;;;;;;;;;10342417;28;20039;-63
2020/12/24 06:43:44;;;;;;;2.10;1.25;;;;;;;;;;10351953;28;20029;-63
2020/12/24 06:48:41;;;;;;;3.10;1.97;;;;;;;;;;10359976;28;20045;-63
2020/12/24 06:53:39;;;;;;;4.53;2.63;;;;;;;;;;10365848;28;20118;-66
2020/12/24 06:58:37;;;;;;;4.75;0.85;;;;;;;;;;10309410;28;20037;-65
2020/12/24 07:03:37;;;;;;;2.30;1.73;;;;;;;;;;10342247;28;20041;-66
2020/12/24 07:08:35;;;;;;;6.22;2.05;;;;;;;;;;10315132;28;20049;-66
2020/12/24 07:13:39;;;;;;;3.53;0.97;;;;;;;;;;10338773;28;20033;-65
2020/12/24 07:18:38;;;;;;;18.48;2.92;;;;;;;;;;10312813;28;20041;-66
2020/12/24 07:23:35;;;;;;;6.85;2.50;;;;;;;;;;10342180;28;20043;-64
2020/12/24 07:28:34;;;;;;;1.60;0.93;;;;;;;;;;10344783;28;20045;-66
2020/12/24 07:33:32;;;;;;;2.63;1.23;;;;;;;;;;10314691;28;20032;-65
2020/12/24 07:38:30;;;;;;;2.95;1.23;;;;;;;;;;10339754;28;20029;-66
2020/12/24 07:43:27;;;;;;;5.47;2.30;;;;;;;;;;10340367;28;20044;-66
2020/12/24 07:48:25;;;;;;;2.93;1.97;;;;;;;;;;10343123;28;20040;-66
2020/12/24 07:53:26;;;;;;;10.47;2.50;;;;;;;;;;10352852;28;20044;-66
2020/12/24 07:58:23;;;;;;;4.63;1.40;;;;;;;;;;10347816;28;20458;-66
2020/12/24 08:03:20;;;;;;;1.43;1.20;;;;;;;;;;10353594;28;20040;-65
2020/12/24 08:08:22;;;;;;;4.70;2.33;;;;;;;;;;10353621;28;20040;-66
2020/12/24 08:13:20;;;;;;;2.25;1.83;;;;;;;;;;10340520;28;20029;-66
2020/12/24 08:18:22;;;;;;;0.68;0.68;;;;;;;;;;10331627;28;21101;-66
2020/12/24 08:23:39;;;;;;;3.22;2.40;;;;;;;;;;10348987;28;20056;-65
2020/12/24 08:28:38;;;;;;;5.60;1.05;;;;;;;;;;10352223;28;20518;-66
2020/12/24 08:33:35;;;;;;;;;;;;;;;;;;10345975;28;20029;-65
2020/12/24 08:38:32;;;;;;;1.20;0.73;;;;;;;;;;10344312;28;20409;-65
2020/12/24 08:43:31;;;;;;;0.30;0.30;;;;;;;;;;10356675;28;20078;-64
2020/12/24 08:48:32;;;;;;;1.23;0.82;;;;;;;;;;10354297;28;20048;-64
2020/12/24 08:53:30;;;;;;;0.50;0.50;;;;;;;;;;10347579;28;20131;-65
2020/12/24 08:58:27;;;;;;;0.68;0.52;;;;;;;;;;10358436;28;20064;-65
2020/12/24 09:03:25;;;;;;;0.30;0.30;;;;;;;;;;10352820;28;20062;-66
2020/12/24 09:08:26;;;;;;;4.82;0.93;;;;;;;;;;10354811;28;20053;-65
2020/12/24 09:13:24;;;;;;;2.85;0.73;;;;;;;;;;10351799;28;20050;-65
2020/12/24 09:18:21;;;;;;;2.00;0.87;;;;;;;;;;10371679;28;20650;-64
2020/12/24 09:23:19;;;;;;;0.93;0.67;;;;;;;;;;10369039;28;20037;-65
2020/12/24 09:28:19;;;;;;;0.80;0.40;;;;;;;;;;10352864;28;20044;-66
2020/12/24 09:33:16;;;;;;;0.63;0.47;;;;;;;;;;10347378;28;20405;-65
2020/12/24 09:38:14;;;;;;;7.00;0.60;;;;;;;;;;10368017;28;20085;-65
2020/12/24 09:43:11;;;;;;;1.13;0.70;;;;;;;;;;10343449;28;20410;-64
2020/12/24 09:48:09;;;;;;;0.77;0.40;;;;;;;;;;10331194;28;20039;-65
2020/12/24 09:53:06;;;;;;;1.40;0.30;;;;;;;;;;10335364;28;20040;-65
2020/12/24 09:58:04;;;;;;;3.00;0.80;;;;;;;;;;10350552;28;20560;-63
2020/12/24 10:03:01;;;;;;;0.40;0.40;;;;;;;;;;10333219;28;20037;-66
2020/12/24 10:07:59;;;;;;;1.47;0.67;;;;;;;;;;10321895;28;20033;-66
2020/12/24 10:12:56;;;;;;;0.27;0.20;;;;;;;;;;10323253;28;20268;-66
2020/12/24 10:17:54;;;;;;;3.00;0.93;;;;;;;;;;10343675;28;20043;-65
2020/12/24 10:22:52;;;;;;;8.90;1.03;;;;;;;;;;10327178;28;20094;-60
2020/12/24 10:27:49;;;;;;;4.75;0.70;;;;;;;;;;10341861;28;20079;-65
2020/12/24 10:32:47;;;;;;;3.40;0.90;;;;;;;;;;10343638;28;20040;-64
2020/12/24 10:37:45;;;;;;;1.30;0.98;;;;;;;;;;10332064;28;20049;-63
2020/12/24 10:42:46;;;;;;;3.10;0.73;;;;;;;;;;10335352;28;20033;-63
2020/12/24 10:47:43;;;;;;;3.38;0.60;;;;;;;;;;10348352;28;20043;-63
2020/12/24 10:52:41;;;;;;;2.73;0.77;;;;;;;;;;10350236;28;20052;-63
2020/12/24 10:57:38;;;;;;;2.60;0.40;;;;;;;;;;10345554;28;20041;-63
2020/12/24 11:02:36;;;;;;;2.87;0.53;;;;;;;;;;10351843;28;20044;-63
2020/12/24 11:07:34;;;;;;;1.55;0.30;;;;;;;;;;10345673;28;20516;-63
2020/12/24 11:12:31;;;;;;;1.60;0.30;;;;;;;;;;10332916;28;20033;-64
2020/12/24 11:17:30;;;;;;;12.70;0.90;;;;;;;;;;10349168;28;20041;-62
2020/12/24 11:22:27;;;;;;;3.30;0.35;;;;;;;;;;10334031;28;20131;-62
2020/12/24 11:27:25;;;;;;;0.63;0.30;;;;;;;;;;10352025;28;20119;-60
2020/12/24 11:32:22;;;;;;;0.50;0.50;;;;;;;;;;10344714;28;20036;-63
2020/12/24 11:37:20;;;;;;;6.30;0.40;;;;;;;;;;10331095;28;20028;-63
2020/12/24 11:42:17;;;;;;;0.57;0.40;;;;;;;;;;10342813;28;20044;-62
2020/12/24 11:47:14;;;;;;;0.40;0.20;;;;;;;;;;10330271;28;20048;-64
2020/12/24 11:52:12;;;;;;;2.80;0.37;;;;;;;;;;10347786;28;20526;-65
2020/12/24 11:57:09;;;;;;;1.13;0.67;;;;;;;;;;10349975;28;20380;-62
2020/12/24 12:02:07;;;;;;;1.27;0.50;;;;;;;;;;10349183;28;20110;-61
2020/12/24 12:07:04;;;;;;;0.83;0.63;;;;;;;;;;10350161;28;20044;-63
2020/12/24 12:12:01;;;;;;;0.33;0.33;;;;;;;;;;10352683;28;20033;-62
2020/12/24 12:17:00;;;;;;;2.87;0.40;;;;;;;;;;10353333;28;20082;-60
2020/12/24 12:21:58;;;;;;;1.42;0.45;;;;;;;;;;10369221;28;20068;-62
2020/12/24 12:26:55;;;;;;;8.77;0.90;;;;;;;;;;10381491;28;20064;-61
2020/12/24 12:31:52;;;;;;;2.90;0.30;;;;;;;;;;10368978;28;20526;-64
2020/12/24 12:36:50;;;;;;;2.00;0.50;;;;;;;;;;10333800;28;20037;-60
2020/12/24 12:41:48;;;;;;;3.10;0.70;;;;;;;;;;10363605;28;20573;-61
2020/12/24 12:46:46;;;;;;;2.40;0.45;;;;;;;;;;10312677;22;20431;-63
2020/12/24 12:51:43;;;;;;;0.20;0.20;;;;;;;;;;10248943;28;20034;-61
2020/12/24 12:56:44;;;;;;;4.27;0.50;;;;;;;;;;10219147;28;21184;-61
2020/12/24 13:01:41;;;;;;;4.82;0.70;;;;;;;;;;10211436;28;21582;-61
2020/12/24 13:06:39;;;;;;;0.37;0.37;;;;;;;;;;10244838;28;20419;-61
2020/12/24 13:11:36;;;;;;;3.63;0.37;;;;;;;;;;10198964;28;20040;-60
2020/12/24 13:16:34;;;;;;;2.60;0.40;;;;;;;;;;10198132;28;20029;-61
2020/12/24 13:21:31;;;;;;;0.73;0.40;;;;;;;;;;10272377;23;20055;-64
2020/12/24 13:26:29;;;;;;;0.80;0.20;;;;;;;;;;10328885;28;20040;-64
2020/12/24 13:31:26;;;;;;;2.60;0.53;;;;;;;;;;10364582;28;20033;-64
2020/12/24 13:36:24;;;;;;;2.80;0.50;;;;;;;;;;10314891;28;20025;-64
2020/12/24 13:41:22;;;;;;;1.07;0.60;;;;;;;;;;10326542;28;20145;-64
2020/12/24 13:46:19;;;;;;;0.40;0.40;;;;;;;;;;10365967;28;20036;-65
2020/12/24 13:51:17;;;;;;;1.23;0.50;;;;;;;;;;10300117;28;20701;-65
2020/12/24 13:56:14;;;;;;;0.47;0.47;;;;;;;;;;10307554;28;20127;-65
2020/12/24 14:01:12;;;;;;;0.90;0.43;;;;;;;;;;10307632;28;20032;-64
2020/12/24 14:06:10;;;;;;;;;;;;;;;;;;10331768;28;20029;-62
2020/12/24 14:11:07;;;;;;;2.70;0.70;;;;;;;;;;10366780;28;19905;-62
2020/12/24 14:16:05;;;;;;;0.23;0.23;;;;;;;;;;10357879;28;20154;-61
2020/12/24 14:21:02;;;;;;;1.37;0.40;;;;;;;;;;10345801;28;20036;-61
2020/12/24 14:25:59;;;;;;;0.67;0.60;;;;;;;;;;10325301;28;20045;-60
2020/12/24 14:30:57;;;;;;;0.60;0.40;;;;;;;;;;10340493;28;20033;-59
2020/12/24 14:35:55;;;;;;;0.73;0.60;;;;;;;;;;10304241;28;20028;-64
2020/12/24 14:40:53;;;;;;;;;;;;;;;;;;10299263;28;20029;-60
2020/12/24 14:45:52;;;;;;;1.27;0.50;;;;;;;;;;10330917;28;19921;-64
2020/12/24 14:50:50;;;;;;;0.98;0.50;;;;;;;;;;10303868;28;20024;-60
2020/12/24 14:55:47;;;;;;;0.40;0.40;;;;;;;;;;10332014;28;20037;-61
2020/12/24 15:00:45;;;;;;;0.27;0.27;;;;;;;;;;10273110;28;20074;-65
2020/12/24 15:05:43;;;;;;;1.67;0.80;;;;;;;;;;10327074;28;20102;-64
2020/12/24 15:10:42;;;;;;;2.07;0.57;;;;;;;;;;10304587;28;20105;-65
2020/12/24 15:15:40;;;;;;;1.35;0.95;;;;;;;;;;10307701;28;20283;-61
2020/12/24 15:20:38;;;;;;;3.42;0.50;;;;;;;;;;10323429;28;20041;-62
2020/12/24 15:25:35;;;;;;;0.53;0.43;;;;;;;;;;10324098;28;20111;-60
2020/12/24 15:30:33;;;;;;;0.83;0.83;;;;;;;;;;10336783;28;20471;-63
2020/12/24 15:35:31;;;;;;;0.30;0.30;;;;;;;;;;10370150;28;20422;-63
2020/12/24 15:40:29;;;;;;;0.40;0.40;;;;;;;;;;10324117;28;20076;-58
2020/12/24 15:45:26;;;;;;;5.40;1.10;;;;;;;;;;10313228;28;20382;-58
2020/12/24 15:50:24;;;;;;;1.63;0.97;;;;;;;;;;10315746;28;20029;-61
2020/12/24 15:55:22;;;;;;;2.83;1.43;;;;;;;;;;10362178;28;20178;-57
2020/12/24 16:00:19;;;;;;;2.27;1.63;;;;;;;;;;10325132;28;20033;-58
2020/12/24 16:05:17;;;;;;;5.50;2.53;;;;;;;;;;10319367;28;21742;-60
2020/12/24 16:10:14;;;;;;;8.37;2.67;;;;;;;;;;10324700;28;20428;-60
2020/12/24 16:15:11;;;;;;;3.57;2.47;;;;;;;;;;10300916;28;20411;-62
2020/12/24 16:20:09;;;;;;;4.33;1.97;;;;;;;;;;10289329;28;20033;-62
2020/12/24 16:25:06;;;;;;;5.10;2.03;;;;;;;;;;10301499;28;20355;-59
2020/12/24 16:30:04;;;;;;;6.20;2.00;;;;;;;;;;10318791;28;20510;-61
2020/12/24 16:35:02;;;;;;;5.75;2.20;;;;;;;;;;10324845;28;20387;-62
2020/12/24 16:40:00;;;;;;;5.78;2.05;;;;;;;;;;10344602;28;20074;-58
2020/12/24 16:44:57;;;;;;;4.70;2.30;;;;;;;;;;10362019;28;20078;-60
2020/12/24 16:49:55;;;;;;;3.63;1.97;;;;;;;;;;10324358;28;20037;-61
2020/12/24 16:54:52;;;;;;;3.03;1.57;;;;;;;;;;10336938;28;20037;-60
2020/12/24 16:59:49;;;;;;;7.07;2.60;;;;;;;;;;10334502;28;20064;-61
2020/12/24 17:04:47;;;;;;;3.53;2.47;;;;;;;;;;10346945;28;20028;-59
2020/12/24 17:09:44;;;;;;;6.40;2.27;;;;;;;;;;10339919;28;20044;-62
2020/12/24 17:14:41;;;;;;;4.83;2.93;;;;;;;;;;10355146;28;20910;-58
2020/12/24 17:19:39;;;;;;;5.23;2.47;;;;;;;;;;10339971;28;20041;-60
2020/12/24 17:24:37;;;;;;;7.40;3.73;;;;;;;;;;10326728;28;20095;-59
2020/12/24 17:29:37;;;;;;;5.22;3.17;;;;;;;;;;10311603;28;20513;-59
2020/12/24 17:34:35;;;;;;;6.90;1.97;;;;;;;;;;10294067;28;20055;-61
2020/12/24 17:39:32;;;;;;;4.20;2.57;;;;;;;;;;10320716;28;20108;-65
2020/12/24 17:44:30;;;;;;;2.90;2.07;;;;;;;;;;10344135;28;20033;-60
2020/12/24 17:49:27;;;;;;;3.23;2.10;;;;;;;;;;10350906;28;20054;-61
2020/12/24 17:54:25;;;;;;;6.00;3.27;;;;;;;;;;10359164;28;20043;-60
2020/12/24 17:59:22;;;;;;;6.60;2.40;;;;;;;;;;10364550;28;20039;-63
2020/12/24 18:04:19;;;;;;;4.43;2.00;;;;;;;;;;10369003;28;20047;-58
2020/12/24 18:09:17;;;;;;;4.07;2.50;;;;;;;;;;10338218;28;20033;-62
2020/12/24 18:14:14;;;;;;;4.43;2.53;;;;;;;;;;10308131;28;20098;-61
2020/12/24 18:19:11;;;;;;;4.73;2.10;;;;;;;;;;10306064;28;20417;-60
2020/12/24 18:24:09;;;;;;;4.13;1.90;;;;;;;;;;10296189;28;20514;-60
2020/12/24 18:29:06;;;;;;;7.40;2.20;;;;;;;;;;10349300;28;20472;-59
2020/12/24 18:34:04;;;;;;;4.47;2.33;;;;;;;;;;10308424;28;20544;-58
2020/12/24 18:39:02;;;;;;;4.88;2.03;;;;;;;;;;10319663;28;20044;-60
2020/12/24 18:44:00;;;;;;;3.90;1.52;;;;;;;;;;10347151;28;20059;-60
2020/12/24 18:48:58;;;;;;;2.83;1.97;;;;;;;;;;10321171;28;20063;-58
2020/12/24 18:53:56;;;;;;;7.30;1.73;;;;;;;;;;10308658;28;20433;-62
2020/12/24 18:58:53;;;;;;;3.27;1.57;;;;;;;;;;10311299;28;20029;-58
2020/12/24 19:03:51;;;;;;;2.20;1.37;;;;;;;;;;10355518;28;20037;-64
2020/12/24 19:08:48;;;;;;;4.03;1.83;;;;;;;;;;10360320;28;20615;-63
2020/12/24 19:13:48;;;;;;;4.00;1.60;;;;;;;;;;10357206;28;20032;-61
2020/12/24 19:18:46;;;;;;;2.60;1.70;;;;;;;;;;10336697;28;20065;-65
2020/12/24 19:23:44;;;;;;;2.43;1.47;;;;;;;;;;10311721;28;20127;-61
2020/12/24 19:28:42;;;;;;;5.18;2.30;;;;;;;;;;10330338;28;20183;-64
2020/12/24 19:33:40;;;;;;;2.83;1.13;;;;;;;;;;10351134;28;20044;-64
2020/12/24 19:38:38;;;;;;;;;;;;;;;;;;10325532;28;20120;-63
2020/12/24 19:43:35;;;;;;;3.47;1.42;;;;;;;;;;10312770;28;20394;-62
2020/12/24 19:48:33;;;;;;;3.03;1.60;;;;;;;;;;10301037;28;20518;-63
2020/12/24 19:53:32;;;;;;;2.17;0.93;;;;;;;;;;10334273;28;20032;-63
2020/12/24 19:58:29;;;;;;;2.35;1.25;;;;;;;;;;10333501;28;20793;-62
2020/12/24 20:03:27;;;;;;;1.77;1.10;;;;;;;;;;10317385;28;20037;-60
2020/12/24 20:08:24;;;;;;;7.10;1.63;;;;;;;;;;10323834;28;20302;-58
2020/12/24 20:13:22;;;;;;;3.20;1.40;;;;;;;;;;10330955;28;20029;-63
2020/12/24 20:18:19;;;;;;;5.47;1.30;;;;;;;;;;10327472;28;20445;-59
2020/12/24 20:23:17;;;;;;;4.67;1.37;;;;;;;;;;10316736;28;20068;-56
2020/12/24 20:28:16;;;;;;;2.30;1.02;;;;;;;;;;10319419;28;20792;-59
2020/12/24 20:33:14;;;;;;;2.50;1.30;;;;;;;;;;10370610;28;20032;-59
2020/12/24 20:38:12;;;;;;;2.60;1.13;;;;;;;;;;10330559;28;20483;-59
2020/12/24 20:43:10;;;;;;;2.00;1.40;;;;;;;;;;10316380;28;20040;-60
2020/12/24 20:48:08;;;;;;;7.17;1.27;;;;;;;;;;10314290;28;20517;-61
2020/12/24 20:53:08;;;;;;;2.00;1.10;;;;;;;;;;10331006;28;20111;-59
2020/12/24 20:58:05;;;;;;;4.88;1.10;;;;;;;;;;10349171;28;20522;-58
2020/12/24 21:03:03;;;;;;;3.90;2.00;;;;;;;;;;10374487;28;20464;-61
2020/12/24 21:08:00;;;;;;;1.63;0.77;;;;;;;;;;10356053;28;20048;-60
2020/12/24 21:12:58;;;;;;;1.03;0.93;;;;;;;;;;10341275;28;20120;-58
2020/12/24 21:17:55;;;;;;;3.20;0.80;;;;;;;;;;10343883;28;20126;-61
2020/12/24 21:22:53;;;;;;;3.53;1.03;;;;;;;;;;10332231;28;20037;-59
2020/12/24 21:27:50;;;;;;;0.70;0.50;;;;;;;;;;10338854;28;20048;-58
2020/12/24 21:32:47;;;;;;;3.13;0.83;;;;;;;;;;10330542;28;20048;-61
2020/12/24 21:37:45;;;;;;;3.90;0.90;;;;;;;;;;10353354;28;20064;-59
2020/12/24 21:42:42;;;;;;;1.20;0.80;;;;;;;;;;10322937;28;20446;-62
2020/12/24 21:47:39;;;;;;;0.60;0.57;;;;;;;;;;10319518;28;20045;-60
2020/12/24 21:52:37;;;;;;;2.30;1.07;;;;;;;;;;10314763;28;20033;-59
2020/12/24 21:57:34;;;;;;;5.43;0.80;;;;;;;;;;10331449;28;20549;-60
2020/12/24 22:02:32;;;;;;;1.07;0.67;;;;;;;;;;10304913;28;20310;-59
2020/12/24 22:07:29;;;;;;;0.87;0.53;;;;;;;;;;10340045;28;20501;-60
2020/12/24 22:12:27;;;;;;;6.03;1.30;;;;;;;;;;10339874;28;20098;-59
2020/12/24 22:17:24;;;;;;;6.23;1.13;;;;;;;;;;10308077;28;20053;-61
2020/12/24 22:22:21;;;;;;;3.40;0.77;;;;;;;;;;10314132;28;20088;-65
2020/12/24 22:27:20;;;;;;;2.53;1.33;;;;;;;;;;10303002;28;20522;-61
2020/12/24 22:32:17;;;;;;;;;;;;;;;;;;10294743;28;20545;-61
2020/12/24 22:37:15;;;;;;;4.50;0.87;;;;;;;;;;10318142;28;19919;-63
2020/12/24 22:42:12;;;;;;;4.67;1.03;;;;;;;;;;10363712;28;20287;-60
2020/12/24 22:47:10;;;;;;;6.93;1.20;;;;;;;;;;10351868;28;20582;-61
2020/12/24 22:52:07;;;;;;;3.77;1.30;;;;;;;;;;10371739;28;20032;-61
2020/12/24 22:57:05;;;;;;;7.67;1.57;;;;;;;;;;10364357;28;20527;-63
2020/12/24 23:02:03;;;;;;;2.67;1.08;;;;;;;;;;10332494;28;20055;-62
2020/12/24 23:07:00;;;;;;;1.83;0.80;;;;;;;;;;10342326;28;20426;-61
2020/12/24 23:11:57;;;;;;;7.03;0.83;;;;;;;;;;10338891;28;20558;-59
2020/12/24 23:16:58;;;;;;;4.90;0.90;;;;;;;;;;10314896;28;20067;-61
2020/12/24 23:21:55;;;;;;;2.38;1.30;;;;;;;;;;10305894;28;20056;-61
2020/12/24 23:26:53;;;;;;;3.33;1.10;;;;;;;;;;10337981;28;20099;-61
2020/12/24 23:31:50;;;;;;;3.53;1.27;;;;;;;;;;10311151;28;20041;-61
2020/12/24 23:36:48;;;;;;;6.33;1.10;;;;;;;;;;10302397;28;20017;-60
2020/12/24 23:41:45;;;;;;;9.30;1.00;;;;;;;;;;10361341;28;20482;-61
2020/12/24 23:46:46;;;;;;;2.73;1.10;;;;;;;;;;10346857;28;20473;-60
2020/12/24 23:51:43;;;;;;;3.80;0.75;;;;;;;;;;10336122;28;20036;-60
2020/12/24 23:56:41;;;;;;;5.77;1.10;;;;;;;;;;10296760;28;20126;-61
